Aviation Digital Data Service (ADDS)

Output produced by TAFs form (0421 UTC 01 July 2016)
found at http://aviationweather.gov/adds/tafs/
 
KDRO 010223Z 0102/0124 27006KT P6SM VCSH BKN100 
     FM010800 10004KT P6SM VCSH BKN100 
     FM011200 VRB03KT P6SM VCSH BKN080 BKN120 
     FM011800 28006G18KT P6SM -SHRA VCTS SCT060 BKN080CB